sensor_id;sensor_type;location;lat;lon;timestamp;pressure;altitude;pressure_sealevel;temperature;humidity
58622;BME280;44389;51.578;5.456;2023-03-19T00:02:05;100950.75;;;9.28;100.00
58622;BME280;44389;51.578;5.456;2023-03-19T00:04:31;100955.03;;;9.27;100.00
58622;BME280;44389;51.578;5.456;2023-03-19T00:06:57;100946.44;;;9.27;100.00
58622;BME280;44389;51.578;5.456;2023-03-19T00:09:22;100959.19;;;9.23;100.00
58622;BME280;44389;51.578;5.456;2023-03-19T00:11:48;100948.91;;;9.23;100.00
58622;BME280;44389;51.578;5.456;2023-03-19T00:14:14;100950.56;;;9.23;100.00
58622;BME280;44389;51.578;5.456;2023-03-19T00:16:40;100947.16;;;9.22;100.00
58622;BME280;44389;51.578;5.456;2023-03-19T00:19:05;100941.22;;;9.25;100.00
58622;BME280;44389;51.578;5.456;2023-03-19T00:21:31;100954.03;;;9.23;100.00
58622;BME280;44389;51.578;5.456;2023-03-19T00:23:56;100955.66;;;9.21;100.00
58622;BME280;44389;51.578;5.456;2023-03-19T00:26:26;100958.25;;;9.21;100.00
58622;BME280;44389;51.578;5.456;2023-03-19T00:28:52;100966.09;;;9.25;100.00
58622;BME280;44389;51.578;5.456;2023-03-19T00:31:17;100960.19;;;9.27;100.00
58622;BME280;44389;51.578;5.456;2023-03-19T00:33:43;100961.84;;;9.27;100.00
58622;BME280;44389;51.578;5.456;2023-03-19T00:36:09;100962.69;;;9.26;100.00
58622;BME280;44389;51.578;5.456;2023-03-19T00:38:35;100962.69;;;9.26;100.00
58622;BME280;44389;51.578;5.456;2023-03-19T00:41:01;100964.44;;;9.27;100.00
58622;BME280;44389;51.578;5.456;2023-03-19T00:43:27;100967.81;;;9.26;100.00
58622;BME280;44389;51.578;5.456;2023-03-19T00:45:52;100969.47;;;9.23;100.00
58622;BME280;44389;51.578;5.456;2023-03-19T00:48:18;100964.28;;;9.22;100.00
58622;BME280;44389;51.578;5.456;2023-03-19T00:50:44;100963.44;;;9.23;100.00
58622;BME280;44389;51.578;5.456;2023-03-19T00:53:09;100964.28;;;9.22;100.00
58622;BME280;44389;51.578;5.456;2023-03-19T00:55:35;100957.38;;;9.21;100.00
58622;BME280;44389;51.578;5.456;2023-03-19T00:58:00;100959.19;;;9.23;100.00
58622;BME280;44389;51.578;5.456;2023-03-19T01:00:26;100962.56;;;9.22;100.00
58622;BME280;44389;51.578;5.456;2023-03-19T01:02:51;100962.56;;;9.22;100.00
58622;BME280;44389;51.578;5.456;2023-03-19T01:05:17;100962.47;;;9.19;100.00
58622;BME280;44389;51.578;5.456;2023-03-19T01:07:42;100963.28;;;9.18;100.00
58622;BME280;44389;51.578;5.456;2023-03-19T01:10:08;100968.25;;;9.14;100.00
58622;BME280;44389;51.578;5.456;2023-03-19T01:12:33;100971.72;;;9.14;100.00
58622;BME280;44389;51.578;5.456;2023-03-19T01:14:59;100974.34;;;9.16;100.00
58622;BME280;44389;51.578;5.456;2023-03-19T01:17:25;100960.59;;;9.15;100.00
58622;BME280;44389;51.578;5.456;2023-03-19T01:19:50;100964.91;;;9.16;100.00
58622;BME280;44389;51.578;5.456;2023-03-19T01:22:15;100961.47;;;9.16;100.00
58622;BME280;44389;51.578;5.456;2023-03-19T01:24:41;100962.34;;;9.16;100.00
58622;BME280;44389;51.578;5.456;2023-03-19T01:27:07;100960.72;;;9.18;100.00
58622;BME280;44389;51.578;5.456;2023-03-19T01:29:32;100956.47;;;9.20;100.00
58622;BME280;44389;51.578;5.456;2023-03-19T01:31:58;100959.06;;;9.20;100.00
58622;BME280;44389;51.578;5.456;2023-03-19T01:34:23;100965.84;;;9.18;100.00
58622;BME280;44389;51.578;5.456;2023-03-19T01:36:48;100962.38;;;9.18;100.00
58622;BME280;44389;51.578;5.456;2023-03-19T01:39:14;100964.97;;;9.18;100.00
58622;BME280;44389;51.578;5.456;2023-03-19T01:41:39;100961.56;;;9.19;100.00
58622;BME280;44389;51.578;5.456;2023-03-19T01:44:25;100960.75;;;9.20;100.00
58622;BME280;44389;51.578;5.456;2023-03-19T01:46:50;100960.75;;;9.20;100.00
58622;BME280;44389;51.578;5.456;2023-03-19T01:49:17;100958.19;;;9.20;100.00
58622;BME280;44389;51.578;5.456;2023-03-19T01:51:44;100958.25;;;9.21;100.00
58622;BME280;44389;51.578;5.456;2023-03-19T01:54:14;100959.94;;;9.21;100.00
58622;BME280;44389;51.578;5.456;2023-03-19T01:56:42;100961.72;;;9.22;100.00
58622;BME280;44389;51.578;5.456;2023-03-19T01:59:12;100969.44;;;9.22;100.00
58622;BME280;44389;51.578;5.456;2023-03-19T02:02:02;100966.91;;;9.23;100.00
58622;BME280;44389;51.578;5.456;2023-03-19T02:04:30;100958.19;;;9.20;100.00
58622;BME280;44389;51.578;5.456;2023-03-19T02:06:57;100961.03;;;9.28;100.00
58622;BME280;44389;51.578;5.456;2023-03-19T02:09:24;100962.63;;;9.24;100.00
58622;BME280;44389;51.578;5.456;2023-03-19T02:11:50;100958.53;;;9.29;100.00
58622;BME280;44389;51.578;5.456;2023-03-19T02:14:16;100958.44;;;9.26;100.00
58622;BME280;44389;51.578;5.456;2023-03-19T02:16:42;100960.09;;;9.26;100.00
58622;BME280;44389;51.578;5.456;2023-03-19T02:19:11;100961.72;;;9.22;100.00
58622;BME280;44389;51.578;5.456;2023-03-19T02:21:37;100965.97;;;9.21;100.00
58622;BME280;44389;51.578;5.456;2023-03-19T02:24:28;100958.97;;;9.17;100.00
58622;BME280;44389;51.578;5.456;2023-03-19T02:26:56;100960.59;;;9.15;100.00
58622;BME280;44389;51.578;5.456;2023-03-19T02:29:22;100972.56;;;9.15;100.00
58622;BME280;44389;51.578;5.456;2023-03-19T02:31:47;100966.44;;;9.11;100.00
58622;BME280;44389;51.578;5.456;2023-03-19T02:36:42;100968.91;;;9.08;100.00
58622;BME280;44389;51.578;5.456;2023-03-19T02:39:16;100974.03;;;9.08;100.00
58622;BME280;44389;51.578;5.456;2023-03-19T02:41:44;100962.88;;;9.07;100.00
58622;BME280;44389;51.578;5.456;2023-03-19T02:44:11;100968.00;;;9.07;100.00
58622;BME280;44389;51.578;5.456;2023-03-19T02:46:36;100970.56;;;9.07;100.00
58622;BME280;44389;51.578;5.456;2023-03-19T02:49:02;100974.03;;;9.08;100.00
58622;BME280;44389;51.578;5.456;2023-03-19T02:51:28;100974.91;;;9.09;100.00
58622;BME280;44389;51.578;5.456;2023-03-19T02:53:53;100974.84;;;9.07;100.00
58622;BME280;44389;51.578;5.456;2023-03-19T02:56:18;100981.75;;;9.08;100.00
58622;BME280;44389;51.578;5.456;2023-03-19T02:58:44;100974.81;;;9.05;100.00
58622;BME280;44389;51.578;5.456;2023-03-19T03:01:09;100975.66;;;9.06;100.00
58622;BME280;44389;51.578;5.456;2023-03-19T03:03:34;100983.38;;;9.06;100.00
58622;BME280;44389;51.578;5.456;2023-03-19T03:05:59;100975.66;;;9.06;100.00
58622;BME280;44389;51.578;5.456;2023-03-19T03:08:25;100980.72;;;9.03;100.00
58622;BME280;44389;51.578;5.456;2023-03-19T03:10:51;100980.72;;;9.03;100.00
58622;BME280;44389;51.578;5.456;2023-03-19T03:13:16;100981.63;;;9.05;100.00
58622;BME280;44389;51.578;5.456;2023-03-19T03:15:42;100981.63;;;9.05;100.00
58622;BME280;44389;51.578;5.456;2023-03-19T03:18:07;100980.75;;;9.04;100.00
58622;BME280;44389;51.578;5.456;2023-03-19T03:20:32;100972.94;;;9.01;100.00
58622;BME280;44389;51.578;5.456;2023-03-19T03:22:58;100976.38;;;9.02;100.00
58622;BME280;44389;51.578;5.456;2023-03-19T03:25:23;100975.44;;;9.00;100.00
58622;BME280;44389;51.578;5.456;2023-03-19T03:27:48;100978.84;;;8.99;100.00
58622;BME280;44389;51.578;5.456;2023-03-19T03:30:14;100984.00;;;8.99;100.00
58622;BME280;44389;51.578;5.456;2023-03-19T03:32:40;100986.47;;;8.97;100.00
58622;BME280;44389;51.578;5.456;2023-03-19T03:35:07;100987.22;;;8.95;100.00
58622;BME280;44389;51.578;5.456;2023-03-19T03:37:33;100989.75;;;8.93;100.00
58622;BME280;44389;51.578;5.456;2023-03-19T03:39:59;100978.47;;;8.89;100.00
58622;BME280;44389;51.578;5.456;2023-03-19T03:42:24;100982.56;;;8.84;100.00
58622;BME280;44389;51.578;5.456;2023-03-19T03:44:49;100981.59;;;8.81;100.00
58622;BME280;44389;51.578;5.456;2023-03-19T03:47:15;100980.53;;;8.76;100.00
58622;BME280;44389;51.578;5.456;2023-03-19T03:49:42;100990.50;;;8.68;100.00
58622;BME280;44389;51.578;5.456;2023-03-19T03:52:08;100982.66;;;8.65;100.00
58622;BME280;44389;51.578;5.456;2023-03-19T03:54:33;100996.19;;;8.61;100.00
58622;BME280;44389;51.578;5.456;2023-03-19T03:56:59;100990.81;;;8.54;100.00
58622;BME280;44389;51.578;5.456;2023-03-19T03:59:25;100999.34;;;8.53;100.00
58622;BME280;44389;51.578;5.456;2023-03-19T04:01:50;100997.34;;;8.46;100.00
58622;BME280;44389;51.578;5.456;2023-03-19T04:04:16;101007.63;;;8.46;100.00
58622;BME280;44389;51.578;5.456;2023-03-19T04:06:44;101009.84;;;8.38;100.00
58622;BME280;44389;51.578;5.456;2023-03-19T04:09:09;101010.69;;;8.39;100.00
58622;BME280;44389;51.578;5.456;2023-03-19T04:11:35;101001.81;;;8.31;100.00
58622;BME280;44389;51.578;5.456;2023-03-19T04:14:00;101004.94;;;8.23;100.00
58622;BME280;44389;51.578;5.456;2023-03-19T04:16:27;100995.41;;;8.21;100.00
58622;BME280;44389;51.578;5.456;2023-03-19T04:18:53;100998.72;;;8.18;100.00
58622;BME280;44389;51.578;5.456;2023-03-19T04:21:19;101003.00;;;8.18;100.00
58622;BME280;44389;51.578;5.456;2023-03-19T04:23:45;100998.41;;;8.11;100.00
58622;BME280;44389;51.578;5.456;2023-03-19T04:26:10;100995.72;;;8.07;100.00
58622;BME280;44389;51.578;5.456;2023-03-19T04:28:36;101011.94;;;8.06;100.00
58622;BME280;44389;51.578;5.456;2023-03-19T04:31:04;101016.06;;;8.03;100.00
58622;BME280;44389;51.578;5.456;2023-03-19T04:33:30;101005.56;;;7.97;100.00
58622;BME280;44389;51.578;5.456;2023-03-19T04:35:56;101002.91;;;7.95;100.00
58622;BME280;44389;51.578;5.456;2023-03-19T04:38:22;101007.03;;;7.91;100.00
58622;BME280;44389;51.578;5.456;2023-03-19T04:40:48;101006.22;;;7.93;100.00
58622;BME280;44389;51.578;5.456;2023-03-19T04:43:14;101004.31;;;7.88;100.00
58622;BME280;44389;51.578;5.456;2023-03-19T04:45:39;101001.63;;;7.85;100.00
58622;BME280;44389;51.578;5.456;2023-03-19T04:48:05;101006.63;;;7.82;100.00
58622;BME280;44389;51.578;5.456;2023-03-19T04:50:31;100996.97;;;7.77;100.00
58622;BME280;44389;51.578;5.456;2023-03-19T04:52:56;101003.72;;;7.74;100.00
58622;BME280;44389;51.578;5.456;2023-03-19T04:55:21;101001.91;;;7.72;100.00
58622;BME280;44389;51.578;5.456;2023-03-19T04:57:47;101013.75;;;7.68;100.00
58622;BME280;44389;51.578;5.456;2023-03-19T05:00:13;101017.28;;;7.72;100.00
58622;BME280;44389;51.578;5.456;2023-03-19T05:02:40;101019.47;;;7.63;100.00
58622;BME280;44389;51.578;5.456;2023-03-19T05:05:07;101018.66;;;7.64;100.00
58622;BME280;44389;51.578;5.456;2023-03-19T05:07:33;101023.56;;;7.59;100.00
58622;BME280;44389;51.578;5.456;2023-03-19T05:09:58;101022.66;;;7.57;100.00
58622;BME280;44389;51.578;5.456;2023-03-19T05:12:23;101027.44;;;7.49;100.00
58622;BME280;44389;51.578;5.456;2023-03-19T05:14:49;101034.31;;;7.50;100.00
58622;BME280;44389;51.578;5.456;2023-03-19T05:17:14;101040.19;;;7.48;100.00
58622;BME280;44389;51.578;5.456;2023-03-19T05:19:39;101036.59;;;7.44;100.00
58622;BME280;44389;51.578;5.456;2023-03-19T05:22:05;101036.19;;;7.35;100.00
58622;BME280;44389;51.578;5.456;2023-03-19T05:24:30;101042.97;;;7.34;100.00
58622;BME280;44389;51.578;5.456;2023-03-19T05:26:56;101042.13;;;7.34;100.00
58622;BME280;44389;51.578;5.456;2023-03-19T05:29:21;101042.50;;;7.23;100.00
58622;BME280;44389;51.578;5.456;2023-03-19T05:31:47;101038.69;;;7.15;100.00
58622;BME280;44389;51.578;5.456;2023-03-19T05:34:13;101039.22;;;7.08;100.00
58622;BME280;44389;51.578;5.456;2023-03-19T05:36:38;101047.47;;;7.20;100.00
58622;BME280;44389;51.578;5.456;2023-03-19T05:39:04;101049.09;;;7.18;100.00
58622;BME280;44389;51.578;5.456;2023-03-19T05:41:30;101051.53;;;6.97;100.00
58622;BME280;44389;51.578;5.456;2023-03-19T05:43:56;101051.38;;;6.94;100.00
58622;BME280;44389;51.578;5.456;2023-03-19T05:46:21;101051.06;;;6.88;100.00
58622;BME280;44389;51.578;5.456;2023-03-19T05:48:47;101053.28;;;6.80;100.00
58622;BME280;44389;51.578;5.456;2023-03-19T05:51:12;101055.84;;;6.80;100.00
58622;BME280;44389;51.578;5.456;2023-03-19T05:53:37;101063.06;;;6.71;100.00
58622;BME280;44389;51.578;5.456;2023-03-19T05:56:03;101070.09;;;6.75;100.00
58622;BME280;44389;51.578;5.456;2023-03-19T05:58:29;101068.19;;;6.71;100.00
58622;BME280;44389;51.578;5.456;2023-03-19T06:00:55;101065.69;;;6.54;100.00
58622;BME280;44389;51.578;5.456;2023-03-19T06:03:21;101064.81;;;6.54;100.00
58622;BME280;44389;51.578;5.456;2023-03-19T06:05:50;101066.34;;;6.50;100.00
58622;BME280;44389;51.578;5.456;2023-03-19T06:08:16;101063.47;;;6.44;100.00
58622;BME280;44389;51.578;5.456;2023-03-19T06:10:42;101066.59;;;6.55;100.00
58622;BME280;44389;51.578;5.456;2023-03-19T06:13:07;101071.78;;;6.56;100.00
58622;BME280;44389;51.578;5.456;2023-03-19T06:15:32;101078.97;;;6.64;100.00
58622;BME280;44389;51.578;5.456;2023-03-19T06:17:58;101079.09;;;6.67;100.00
58622;BME280;44389;51.578;5.456;2023-03-19T06:20:23;101078.50;;;6.72;100.00
58622;BME280;44389;51.578;5.456;2023-03-19T06:22:48;101081.56;;;6.82;100.00
58622;BME280;44389;51.578;5.456;2023-03-19T06:25:14;101088.28;;;6.80;100.00
58622;BME280;44389;51.578;5.456;2023-03-19T06:27:40;101087.09;;;6.73;100.00
58622;BME280;44389;51.578;5.456;2023-03-19T06:30:05;101097.41;;;6.74;100.00
58622;BME280;44389;51.578;5.456;2023-03-19T06:32:31;101095.38;;;6.85;100.00
58622;BME280;44389;51.578;5.456;2023-03-19T06:34:56;101098.22;;;6.91;100.00
58622;BME280;44389;51.578;5.456;2023-03-19T06:37:22;101099.34;;;6.97;100.00
58622;BME280;44389;51.578;5.456;2023-03-19T06:39:47;101103.97;;;7.04;100.00
58622;BME280;44389;51.578;5.456;2023-03-19T06:42:13;101097.72;;;6.99;100.00
58622;BME280;44389;51.578;5.456;2023-03-19T06:44:38;101104.81;;;7.04;100.00
58622;BME280;44389;51.578;5.456;2023-03-19T06:47:04;101103.00;;;7.02;100.00
58622;BME280;44389;51.578;5.456;2023-03-19T06:49:29;101108.13;;;7.02;100.00
58622;BME280;44389;51.578;5.456;2023-03-19T06:51:55;101116.84;;;7.05;100.00
58622;BME280;44389;51.578;5.456;2023-03-19T06:54:20;101122.91;;;7.07;100.00
58622;BME280;44389;51.578;5.456;2023-03-19T06:56:46;101116.53;;;7.17;100.00
58622;BME280;44389;51.578;5.456;2023-03-19T06:59:13;101120.22;;;7.22;100.00
58622;BME280;44389;51.578;5.456;2023-03-19T07:01:41;101122.63;;;7.19;100.00
58622;BME280;44389;51.578;5.456;2023-03-19T07:04:07;101117.94;;;7.29;100.00
58622;BME280;44389;51.578;5.456;2023-03-19T07:06:32;101123.44;;;7.36;100.00
58622;BME280;44389;51.578;5.456;2023-03-19T07:08:58;101126.34;;;7.44;100.00
58622;BME280;44389;51.578;5.456;2023-03-19T07:11:24;101132.03;;;7.56;100.00
58622;BME280;44389;51.578;5.456;2023-03-19T07:13:49;101132.38;;;7.64;100.00
58622;BME280;44389;51.578;5.456;2023-03-19T07:16:15;101133.78;;;7.75;100.00
58622;BME280;44389;51.578;5.456;2023-03-19T07:18:40;101140.22;;;7.85;100.00
58622;BME280;44389;51.578;5.456;2023-03-19T07:21:05;101140.75;;;7.98;100.00
58622;BME280;44389;51.578;5.456;2023-03-19T07:23:30;101142.84;;;8.06;100.00
58622;BME280;44389;51.578;5.456;2023-03-19T07:25:56;101150.38;;;8.21;100.00
58622;BME280;44389;51.578;5.456;2023-03-19T07:28:21;101148.88;;;8.27;100.00
58622;BME280;44389;51.578;5.456;2023-03-19T07:30:47;101158.06;;;8.41;100.00
58622;BME280;44389;51.578;5.456;2023-03-19T07:33:12;101152.47;;;8.50;100.00
58622;BME280;44389;51.578;5.456;2023-03-19T07:35:37;101162.34;;;8.60;100.00
58622;BME280;44389;51.578;5.456;2023-03-19T07:38:03;101167.31;;;8.77;100.00
58622;BME280;44389;51.578;5.456;2023-03-19T07:40:28;101159.78;;;8.81;100.00
58622;BME280;44389;51.578;5.456;2023-03-19T07:42:53;101155.16;;;8.94;100.00
58622;BME280;44389;51.578;5.456;2023-03-19T07:45:19;101160.69;;;9.03;100.00
58622;BME280;44389;51.578;5.456;2023-03-19T07:47:44;101160.34;;;9.16;100.00
58622;BME280;44389;51.578;5.456;2023-03-19T07:50:11;101160.84;;;9.29;100.00
58622;BME280;44389;51.578;5.456;2023-03-19T07:52:36;101164.53;;;9.35;100.00
58622;BME280;44389;51.578;5.456;2023-03-19T07:55:02;101169.28;;;9.47;100.00
58622;BME280;44389;51.578;5.456;2023-03-19T07:57:27;101177.19;;;9.52;100.00
58622;BME280;44389;51.578;5.456;2023-03-19T07:59:52;101175.47;;;9.52;100.00
58622;BME280;44389;51.578;5.456;2023-03-19T08:02:18;101175.03;;;9.63;100.00
58622;BME280;44389;51.578;5.456;2023-03-19T08:04:43;101173.41;;;9.65;100.00
58622;BME280;44389;51.578;5.456;2023-03-19T08:07:09;101176.50;;;9.79;100.00
58622;BME280;44389;51.578;5.456;2023-03-19T08:09:37;101175.91;;;9.86;100.00
58622;BME280;44389;51.578;5.456;2023-03-19T08:12:04;101185.28;;;9.84;100.00
58622;BME280;44389;51.578;5.456;2023-03-19T08:14:31;101185.03;;;9.78;100.00
58622;BME280;44389;51.578;5.456;2023-03-19T08:16:56;101191.25;;;9.83;100.00
58622;BME280;44389;51.578;5.456;2023-03-19T08:19:21;101182.28;;;9.73;100.00
58622;BME280;44389;51.578;5.456;2023-03-19T08:21:47;101194.09;;;9.68;100.00
58622;BME280;44389;51.578;5.456;2023-03-19T08:24:12;101195.63;;;9.63;100.00
58622;BME280;44389;51.578;5.456;2023-03-19T08:26:38;101194.53;;;9.79;100.00
58622;BME280;44389;51.578;5.456;2023-03-19T08:29:03;101197.03;;;9.77;100.00
58622;BME280;44389;51.578;5.456;2023-03-19T08:31:29;101200.59;;;9.81;100.00
58622;BME280;44389;51.578;5.456;2023-03-19T08:33:54;101201.06;;;9.93;100.00
58622;BME280;44389;51.578;5.456;2023-03-19T08:36:20;101200.56;;;10.02;100.00
58622;BME280;44389;51.578;5.456;2023-03-19T08:38:45;101206.13;;;10.14;100.00
58622;BME280;44389;51.578;5.456;2023-03-19T08:41:11;101199.69;;;10.26;100.00
58622;BME280;44389;51.578;5.456;2023-03-19T08:43:36;101208.06;;;10.43;100.00
58622;BME280;44389;51.578;5.456;2023-03-19T08:46:03;101209.59;;;10.62;100.00
58622;BME280;44389;51.578;5.456;2023-03-19T08:48:29;101213.34;;;10.71;100.00
58622;BME280;44389;51.578;5.456;2023-03-19T08:50:57;101223.94;;;10.79;100.00
58622;BME280;44389;51.578;5.456;2023-03-19T08:53:23;101222.59;;;10.91;100.00
58622;BME280;44389;51.578;5.456;2023-03-19T08:55:56;101216.41;;;11.11;100.00
58622;BME280;44389;51.578;5.456;2023-03-19T08:58:22;101225.03;;;11.38;100.00
58622;BME280;44389;51.578;5.456;2023-03-19T09:00:48;101230.81;;;11.58;100.00
58622;BME280;44389;51.578;5.456;2023-03-19T09:03:15;101225.13;;;11.41;100.00
58622;BME280;44389;51.578;5.456;2023-03-19T09:05:40;101224.63;;;11.52;100.00
58622;BME280;44389;51.578;5.456;2023-03-19T09:08:06;101228.81;;;11.49;100.00
58622;BME280;44389;51.578;5.456;2023-03-19T09:10:32;101234.22;;;11.57;100.00
58622;BME280;44389;51.578;5.456;2023-03-19T09:12:59;101230.88;;;11.59;100.00
58622;BME280;44389;51.578;5.456;2023-03-19T09:15:25;101233.19;;;11.51;100.00
58622;BME280;44389;51.578;5.456;2023-03-19T09:17:50;101237.88;;;11.36;100.00
58622;BME280;44389;51.578;5.456;2023-03-19T09:20:16;101259.75;;;11.22;100.00
58622;BME280;44389;51.578;5.456;2023-03-19T09:22:41;101252.44;;;11.08;100.00
58622;BME280;44389;51.578;5.456;2023-03-19T09:25:07;101254.38;;;11.15;100.00
58622;BME280;44389;51.578;5.456;2023-03-19T09:27:32;101253.47;;;11.39;100.00
58622;BME280;44389;51.578;5.456;2023-03-19T09:29:58;101252.22;;;11.53;100.00
58622;BME280;44389;51.578;5.456;2023-03-19T09:32:23;101253.03;;;11.52;99.62
58622;BME280;44389;51.578;5.456;2023-03-19T09:34:49;101258.44;;;11.60;100.00
58622;BME280;44389;51.578;5.456;2023-03-19T09:37:14;101259.00;;;11.51;100.00
58622;BME280;44389;51.578;5.456;2023-03-19T09:39:40;101263.28;;;11.49;100.00
58622;BME280;44389;51.578;5.456;2023-03-19T09:42:23;101264.91;;;11.75;99.12
58622;BME280;44389;51.578;5.456;2023-03-19T09:44:52;101273.47;;;12.28;97.70
58622;BME280;44389;51.578;5.456;2023-03-19T09:49:50;101281.63;;;13.06;95.34
58622;BME280;44389;51.578;5.456;2023-03-19T09:54:57;101276.63;;;13.82;84.75
58622;BME280;44389;51.578;5.456;2023-03-19T09:57:24;101271.63;;;14.30;83.37
58622;BME280;44389;51.578;5.456;2023-03-19T09:59:54;101267.06;;;14.61;81.73
58622;BME280;44389;51.578;5.456;2023-03-19T10:02:38;101277.94;;;14.86;79.25
58622;BME280;44389;51.578;5.456;2023-03-19T10:05:08;101276.53;;;15.02;79.01
58622;BME280;44389;51.578;5.456;2023-03-19T10:15:59;101279.88;;;14.53;77.53
58622;BME280;44389;51.578;5.456;2023-03-19T10:18:29;101280.00;;;14.59;79.22
58622;BME280;44389;51.578;5.456;2023-03-19T10:21:08;101277.78;;;14.35;81.57
58622;BME280;44389;51.578;5.456;2023-03-19T10:26:23;101287.50;;;14.04;81.75
58622;BME280;44389;51.578;5.456;2023-03-19T10:29:19;101282.03;;;14.31;82.66
58622;BME280;44389;51.578;5.456;2023-03-19T10:32:07;101283.19;;;14.46;80.25
58622;BME280;44389;51.578;5.456;2023-03-19T10:34:40;101288.94;;;14.31;81.51
58622;BME280;44389;51.578;5.456;2023-03-19T10:39:38;101294.25;;;14.78;79.74
58622;BME280;44389;51.578;5.456;2023-03-19T10:44:52;101291.84;;;14.88;80.19
58622;BME280;44389;51.578;5.456;2023-03-19T10:47:24;101292.75;;;14.48;83.38
58622;BME280;44389;51.578;5.456;2023-03-19T10:49:50;101300.97;;;14.29;81.37
58622;BME280;44389;51.578;5.456;2023-03-19T10:54:43;101303.81;;;14.00;84.64
58622;BME280;44389;51.578;5.456;2023-03-19T10:57:22;101303.75;;;13.97;84.07
58622;BME280;44389;51.578;5.456;2023-03-19T10:59:47;101297.13;;;14.51;84.39
58622;BME280;44389;51.578;5.456;2023-03-19T11:02:16;101298.28;;;16.17;82.10
58622;BME280;44389;51.578;5.456;2023-03-19T11:04:42;101305.06;;;16.73;75.28
58622;BME280;44389;51.578;5.456;2023-03-19T11:07:18;101307.50;;;16.59;72.89
58622;BME280;44389;51.578;5.456;2023-03-19T11:09:46;101305.25;;;16.89;75.67
58622;BME280;44389;51.578;5.456;2023-03-19T11:12:19;101312.00;;;15.52;73.99
58622;BME280;44389;51.578;5.456;2023-03-19T11:14:47;101305.25;;;15.63;73.71
58622;BME280;44389;51.578;5.456;2023-03-19T11:19:40;101309.75;;;17.02;72.15
58622;BME280;44389;51.578;5.456;2023-03-19T11:24:39;101308.41;;;18.94;62.49
58622;BME280;44389;51.578;5.456;2023-03-19T11:27:06;101307.56;;;19.74;59.06
58622;BME280;44389;51.578;5.456;2023-03-19T11:29:37;101308.47;;;19.82;57.72
58622;BME280;44389;51.578;5.456;2023-03-19T11:35:22;101314.56;;;19.95;54.32
58622;BME280;44389;51.578;5.456;2023-03-19T11:37:52;101307.59;;;19.62;55.37
58622;BME280;44389;51.578;5.456;2023-03-19T11:40:43;101317.16;;;19.61;59.03
58622;BME280;44389;51.578;5.456;2023-03-19T11:49:41;101321.63;;;17.69;63.77
58622;BME280;44389;51.578;5.456;2023-03-19T11:52:34;101319.03;;;16.78;63.90
58622;BME280;44389;51.578;5.456;2023-03-19T11:57:57;101322.78;;;15.24;70.22
58622;BME280;44389;51.578;5.456;2023-03-19T12:00:46;101323.31;;;15.06;73.81
58622;BME280;44389;51.578;5.456;2023-03-19T12:03:21;101311.47;;;14.75;75.21
58622;BME280;44389;51.578;5.456;2023-03-19T12:05:59;101311.63;;;14.82;75.82
58622;BME280;44389;51.578;5.456;2023-03-19T12:08:32;101314.69;;;15.07;74.51
58622;BME280;44389;51.578;5.456;2023-03-19T12:11:12;101320.41;;;15.35;77.12
58622;BME280;44389;51.578;5.456;2023-03-19T12:16:36;101314.31;;;16.50;68.29
58622;BME280;44389;51.578;5.456;2023-03-19T12:29:59;101312.47;;;16.41;68.43
58622;BME280;44389;51.578;5.456;2023-03-19T12:35:07;101311.88;;;15.98;66.74
58622;BME280;44389;51.578;5.456;2023-03-19T12:38:00;101309.31;;;15.99;71.46
58622;BME280;44389;51.578;5.456;2023-03-19T12:40:35;101310.28;;;15.51;72.50
58622;BME280;44389;51.578;5.456;2023-03-19T12:43:07;101313.19;;;16.30;70.82
58622;BME280;44389;51.578;5.456;2023-03-19T12:45:41;101321.97;;;16.37;69.96
58622;BME280;44389;51.578;5.456;2023-03-19T12:48:15;101315.88;;;15.77;69.99
58622;BME280;44389;51.578;5.456;2023-03-19T12:50:45;101317.88;;;15.41;71.46
58622;BME280;44389;51.578;5.456;2023-03-19T12:53:24;101329.19;;;14.97;73.18
58622;BME280;44389;51.578;5.456;2023-03-19T12:55:56;101320.09;;;14.74;73.60
58622;BME280;44389;51.578;5.456;2023-03-19T12:58:28;101322.38;;;14.60;76.69
58622;BME280;44389;51.578;5.456;2023-03-19T13:00:59;101320.53;;;14.53;75.18
58622;BME280;44389;51.578;5.456;2023-03-19T13:03:43;101319.63;;;15.41;75.58
58622;BME280;44389;51.578;5.456;2023-03-19T13:06:22;101327.31;;;15.36;73.77
58622;BME280;44389;51.578;5.456;2023-03-19T13:09:22;101325.47;;;15.29;72.69
58622;BME280;44389;51.578;5.456;2023-03-19T13:12:11;101331.72;;;14.93;75.24
58622;BME280;44389;51.578;5.456;2023-03-19T13:19:52;101333.22;;;14.81;74.22
58622;BME280;44389;51.578;5.456;2023-03-19T13:22:31;101337.50;;;14.79;78.16
58622;BME280;44389;51.578;5.456;2023-03-19T13:24:59;101328.22;;;14.91;78.94
58622;BME280;44389;51.578;5.456;2023-03-19T13:27:31;101339.41;;;14.88;79.58
58622;BME280;44389;51.578;5.456;2023-03-19T13:32:41;101335.34;;;15.01;73.28
58622;BME280;44389;51.578;5.456;2023-03-19T13:35:34;101334.38;;;16.60;72.04
58622;BME280;44389;51.578;5.456;2023-03-19T13:40:58;101343.09;;;18.64;60.74
58622;BME280;44389;51.578;5.456;2023-03-19T13:53:41;101355.94;;;17.19;60.83
58622;BME280;44389;51.578;5.456;2023-03-19T13:56:16;101351.84;;;17.46;61.19
58622;BME280;44389;51.578;5.456;2023-03-19T13:58:50;101355.72;;;17.91;61.14
58622;BME280;44389;51.578;5.456;2023-03-19T14:04:01;101358.41;;;18.03;59.28
58622;BME280;44389;51.578;5.456;2023-03-19T14:06:34;101356.97;;;17.36;59.65
58622;BME280;44389;51.578;5.456;2023-03-19T14:09:02;101360.03;;;17.92;59.78
58622;BME280;44389;51.578;5.456;2023-03-19T14:11:30;101352.16;;;17.84;58.09
58622;BME280;44389;51.578;5.456;2023-03-19T14:14:01;101356.75;;;18.18;59.02
58622;BME280;44389;51.578;5.456;2023-03-19T14:16:36;101356.13;;;18.57;57.44
58622;BME280;44389;51.578;5.456;2023-03-19T14:19:03;101358.56;;;18.22;57.00